sensor_id;sensor_type;location;lat;lon;timestamp;pressure;altitude;pressure_sealevel;temperature;humidity
64551;BME280;50945;44.472;-123.352;2022-12-05T00:02:21;100248.03;;;3.93;77.29
64551;BME280;50945;44.472;-123.352;2022-12-05T00:04:48;100248.31;;;3.90;76.47
64551;BME280;50945;44.472;-123.352;2022-12-05T00:07:14;100248.59;;;3.87;77.03
64551;BME280;50945;44.472;-123.352;2022-12-05T00:09:41;100240.66;;;3.86;77.35
64551;BME280;50945;44.472;-123.352;2022-12-05T00:12:07;100246.34;;;3.83;77.39
64551;BME280;50945;44.472;-123.352;2022-12-05T00:14:33;100235.09;;;3.77;77.95
64551;BME280;50945;44.472;-123.352;2022-12-05T00:17:00;100239.81;;;3.75;77.58
64551;BME280;50945;44.472;-123.352;2022-12-05T00:19:26;100236.41;;;3.73;77.76
64551;BME280;50945;44.472;-123.352;2022-12-05T00:21:53;100252.63;;;3.73;77.65
64551;BME280;50945;44.472;-123.352;2022-12-05T00:24:19;100239.38;;;3.70;77.85
64551;BME280;50945;44.472;-123.352;2022-12-05T00:26:46;100239.66;;;3.67;78.03
64551;BME280;50945;44.472;-123.352;2022-12-05T00:29:12;100238.25;;;3.63;78.10
64551;BME280;50945;44.472;-123.352;2022-12-05T00:31:39;100242.06;;;3.60;78.37
64551;BME280;50945;44.472;-123.352;2022-12-05T00:34:06;100250.34;;;3.59;78.13
64551;BME280;50945;44.472;-123.352;2022-12-05T00:36:35;100252.31;;;3.57;78.30
64551;BME280;50945;44.472;-123.352;2022-12-05T00:39:08;100253.31;;;3.56;78.10
64551;BME280;50945;44.472;-123.352;2022-12-05T00:41:36;100241.81;;;3.54;78.66
64551;BME280;50945;44.472;-123.352;2022-12-05T00:44:03;100260.16;;;3.50;79.01
64551;BME280;50945;44.472;-123.352;2022-12-05T00:46:31;100267.53;;;3.48;79.44
64551;BME280;50945;44.472;-123.352;2022-12-05T00:48:59;100266.13;;;3.44;79.33
64551;BME280;50945;44.472;-123.352;2022-12-05T00:51:29;100271.66;;;3.42;79.03
64551;BME280;50945;44.472;-123.352;2022-12-05T00:54:00;100280.78;;;3.41;79.61
64551;BME280;50945;44.472;-123.352;2022-12-05T00:56:28;100284.91;;;3.36;79.67
64551;BME280;50945;44.472;-123.352;2022-12-05T00:58:57;100279.75;;;3.33;79.92
64551;BME280;50945;44.472;-123.352;2022-12-05T01:01:31;100288.00;;;3.31;80.05
64551;BME280;50945;44.472;-123.352;2022-12-05T01:03:59;100292.56;;;3.31;79.85
64551;BME280;50945;44.472;-123.352;2022-12-05T01:06:27;100289.88;;;3.31;79.98
64551;BME280;50945;44.472;-123.352;2022-12-05T01:08:53;100293.53;;;3.30;81.26
64551;BME280;50945;44.472;-123.352;2022-12-05T01:11:21;100295.41;;;3.29;80.54
64551;BME280;50945;44.472;-123.352;2022-12-05T01:13:51;100282.03;;;3.28;79.93
64551;BME280;50945;44.472;-123.352;2022-12-05T01:16:27;100289.44;;;3.26;80.56
64551;BME280;50945;44.472;-123.352;2022-12-05T01:18:55;100285.00;;;3.24;81.09
64551;BME280;50945;44.472;-123.352;2022-12-05T01:21:23;100284.28;;;3.22;80.85
64551;BME280;50945;44.472;-123.352;2022-12-05T01:23:50;100284.28;;;3.22;80.99
64551;BME280;50945;44.472;-123.352;2022-12-05T01:26:19;100281.72;;;3.21;80.92
64551;BME280;50945;44.472;-123.352;2022-12-05T01:28:46;100281.16;;;3.17;80.83
64551;BME280;50945;44.472;-123.352;2022-12-05T01:31:28;100274.19;;;3.15;80.19
64551;BME280;50945;44.472;-123.352;2022-12-05T01:33:58;100274.47;;;3.12;80.69
64551;BME280;50945;44.472;-123.352;2022-12-05T01:36:26;100273.63;;;3.11;80.58
64551;BME280;50945;44.472;-123.352;2022-12-05T01:38:53;100265.91;;;3.07;80.63
64551;BME280;50945;44.472;-123.352;2022-12-05T01:41:20;100267.47;;;2.99;81.10
64551;BME280;50945;44.472;-123.352;2022-12-05T01:46:32;100269.97;;;2.91;80.80
64551;BME280;50945;44.472;-123.352;2022-12-05T01:51:30;100270.53;;;2.85;81.00
64551;BME280;50945;44.472;-123.352;2022-12-05T01:53:58;100273.38;;;2.83;81.14
64551;BME280;50945;44.472;-123.352;2022-12-05T01:56:28;100274.53;;;2.81;81.30
64551;BME280;50945;44.472;-123.352;2022-12-05T01:58:59;100271.25;;;2.77;81.27
64551;BME280;50945;44.472;-123.352;2022-12-05T02:01:27;100276.78;;;2.76;81.07
64551;BME280;50945;44.472;-123.352;2022-12-05T02:03:57;100278.75;;;2.74;81.36
64551;BME280;50945;44.472;-123.352;2022-12-05T02:06:25;100285.00;;;2.74;81.78
64551;BME280;50945;44.472;-123.352;2022-12-05T02:08:53;100278.59;;;2.75;82.24
64551;BME280;50945;44.472;-123.352;2022-12-05T02:11:21;100279.47;;;2.76;81.58
64551;BME280;50945;44.472;-123.352;2022-12-05T02:14:08;100272.22;;;2.76;81.52
64551;BME280;50945;44.472;-123.352;2022-12-05T02:31:13;100281.13;;;2.67;82.23
64551;BME280;50945;44.472;-123.352;2022-12-05T02:33:47;100278.84;;;2.62;83.59
64551;BME280;50945;44.472;-123.352;2022-12-05T02:36:41;100277.16;;;2.61;82.81
64551;BME280;50945;44.472;-123.352;2022-12-05T02:41:57;100281.63;;;2.51;82.38
64551;BME280;50945;44.472;-123.352;2022-12-05T02:47:11;100287.72;;;2.43;82.88
64551;BME280;50945;44.472;-123.352;2022-12-05T02:49:40;100295.66;;;2.45;82.87
64551;BME280;50945;44.472;-123.352;2022-12-05T02:52:12;100291.97;;;2.46;83.47
64551;BME280;50945;44.472;-123.352;2022-12-05T02:54:42;100298.22;;;2.46;83.13
64551;BME280;50945;44.472;-123.352;2022-12-05T02:57:10;100308.75;;;2.50;82.94
64551;BME280;50945;44.472;-123.352;2022-12-05T02:59:38;100301.50;;;2.50;82.79
64551;BME280;50945;44.472;-123.352;2022-12-05T03:02:06;100294.13;;;2.52;83.18
64551;BME280;50945;44.472;-123.352;2022-12-05T03:04:33;100301.25;;;2.53;83.25
64551;BME280;50945;44.472;-123.352;2022-12-05T03:07:06;100299.38;;;2.54;83.69
64551;BME280;50945;44.472;-123.352;2022-12-05T03:09:48;100311.91;;;2.55;83.32
64551;BME280;50945;44.472;-123.352;2022-12-05T03:15:08;100318.28;;;2.54;83.83
64551;BME280;50945;44.472;-123.352;2022-12-05T03:17:46;100320.97;;;2.54;83.74
64551;BME280;50945;44.472;-123.352;2022-12-05T03:20:28;100326.38;;;2.54;86.30
64551;BME280;50945;44.472;-123.352;2022-12-05T03:23:12;100325.53;;;2.53;84.28
64551;BME280;50945;44.472;-123.352;2022-12-05T03:26:04;100316.47;;;2.54;84.68
64551;BME280;50945;44.472;-123.352;2022-12-05T03:31:21;100323.81;;;2.52;84.10
64551;BME280;50945;44.472;-123.352;2022-12-05T03:33:55;100331.06;;;2.52;83.88
64551;BME280;50945;44.472;-123.352;2022-12-05T03:36:27;100335.03;;;2.47;86.06
64551;BME280;50945;44.472;-123.352;2022-12-05T03:39:07;100323.63;;;2.44;84.65
64551;BME280;50945;44.472;-123.352;2022-12-05T03:41:50;100323.75;;;2.42;84.69
64551;BME280;50945;44.472;-123.352;2022-12-05T03:44:59;100324.63;;;2.43;84.49
64551;BME280;50945;44.472;-123.352;2022-12-05T03:50:04;100332.25;;;2.38;84.92
64551;BME280;50945;44.472;-123.352;2022-12-05T03:52:41;100333.25;;;2.37;84.67
64551;BME280;50945;44.472;-123.352;2022-12-05T03:55:09;100331.66;;;2.34;84.64
64551;BME280;50945;44.472;-123.352;2022-12-05T03:57:59;100332.78;;;2.32;85.00
64551;BME280;50945;44.472;-123.352;2022-12-05T04:00:30;100331.94;;;2.31;85.09
64551;BME280;50945;44.472;-123.352;2022-12-05T04:03:08;100335.75;;;2.28;84.54
64551;BME280;50945;44.472;-123.352;2022-12-05T04:05:51;100344.84;;;2.27;84.64
64551;BME280;50945;44.472;-123.352;2022-12-05T04:10:53;100344.38;;;2.22;84.85
64551;BME280;50945;44.472;-123.352;2022-12-05T04:13:32;100356.25;;;2.20;84.59
64551;BME280;50945;44.472;-123.352;2022-12-05T04:16:30;100351.00;;;2.18;85.73
64551;BME280;50945;44.472;-123.352;2022-12-05T04:21:53;100360.09;;;2.17;85.06
64551;BME280;50945;44.472;-123.352;2022-12-05T04:24:30;100363.75;;;2.16;85.06
64551;BME280;50945;44.472;-123.352;2022-12-05T04:27:51;100354.69;;;2.17;85.47
64551;BME280;50945;44.472;-123.352;2022-12-05T04:30:23;100355.66;;;2.16;85.44
64551;BME280;50945;44.472;-123.352;2022-12-05T04:38:23;100364.16;;;2.12;85.88
64551;BME280;50945;44.472;-123.352;2022-12-05T04:41:02;100353.50;;;2.10;85.24
64551;BME280;50945;44.472;-123.352;2022-12-05T04:43:34;100358.03;;;2.09;85.36
64551;BME280;50945;44.472;-123.352;2022-12-05T04:46:11;100356.34;;;2.08;85.71
64551;BME280;50945;44.472;-123.352;2022-12-05T04:48:43;100358.19;;;2.08;85.49
64551;BME280;50945;44.472;-123.352;2022-12-05T04:51:19;100361.84;;;2.07;86.02
64551;BME280;50945;44.472;-123.352;2022-12-05T04:53:51;100353.75;;;2.07;86.05
64551;BME280;50945;44.472;-123.352;2022-12-05T04:56:23;100355.50;;;2.08;86.21
64551;BME280;50945;44.472;-123.352;2022-12-05T04:58:52;100350.81;;;2.10;85.68
64551;BME280;50945;44.472;-123.352;2022-12-05T05:03:58;100352.38;;;2.13;85.51
64551;BME280;50945;44.472;-123.352;2022-12-05T05:06:25;100358.63;;;2.13;85.35
64551;BME280;50945;44.472;-123.352;2022-12-05T05:08:55;100363.16;;;2.13;85.63
64551;BME280;50945;44.472;-123.352;2022-12-05T05:11:26;100368.56;;;2.13;85.54
64551;BME280;50945;44.472;-123.352;2022-12-05T05:13:54;100368.31;;;2.16;85.85
64551;BME280;50945;44.472;-123.352;2022-12-05T05:16:35;100367.19;;;2.18;85.66
64551;BME280;50945;44.472;-123.352;2022-12-05T05:19:05;100358.84;;;2.21;85.55
64551;BME280;50945;44.472;-123.352;2022-12-05T05:21:37;100374.66;;;2.26;85.27
64551;BME280;50945;44.472;-123.352;2022-12-05T05:24:08;100369.25;;;2.26;85.69
64551;BME280;50945;44.472;-123.352;2022-12-05T05:26:38;100370.94;;;2.27;85.62
64551;BME280;50945;44.472;-123.352;2022-12-05T05:29:05;100377.06;;;2.29;86.04
64551;BME280;50945;44.472;-123.352;2022-12-05T05:31:32;100386.88;;;2.30;85.39
64551;BME280;50945;44.472;-123.352;2022-12-05T05:33:59;100388.59;;;2.31;85.34
64551;BME280;50945;44.472;-123.352;2022-12-05T05:36:26;100391.28;;;2.31;85.36
64551;BME280;50945;44.472;-123.352;2022-12-05T05:38:55;100379.63;;;2.31;85.47
64551;BME280;50945;44.472;-123.352;2022-12-05T05:41:33;100392.41;;;2.28;85.85
64551;BME280;50945;44.472;-123.352;2022-12-05T05:44:00;100395.34;;;2.25;85.91
64551;BME280;50945;44.472;-123.352;2022-12-05T05:46:27;100398.78;;;2.27;87.64
64551;BME280;50945;44.472;-123.352;2022-12-05T05:48:54;100400.47;;;2.28;86.40
64551;BME280;50945;44.472;-123.352;2022-12-05T05:51:22;100403.06;;;2.30;85.74
64551;BME280;50945;44.472;-123.352;2022-12-05T05:53:52;100399.50;;;2.30;85.96
64551;BME280;50945;44.472;-123.352;2022-12-05T05:56:19;100401.50;;;2.27;86.04
64551;BME280;50945;44.472;-123.352;2022-12-05T05:58:47;100413.13;;;2.28;85.77
64551;BME280;50945;44.472;-123.352;2022-12-05T06:01:15;100409.44;;;2.29;85.92
64551;BME280;50945;44.472;-123.352;2022-12-05T06:03:42;100404.63;;;2.33;86.09
64551;BME280;50945;44.472;-123.352;2022-12-05T06:06:11;100400.94;;;2.34;85.48
64551;BME280;50945;44.472;-123.352;2022-12-05T06:08:40;100404.38;;;2.36;85.54
64551;BME280;50945;44.472;-123.352;2022-12-05T06:11:12;100408.06;;;2.35;85.89
64551;BME280;50945;44.472;-123.352;2022-12-05T06:13:39;100406.34;;;2.34;85.61
64551;BME280;50945;44.472;-123.352;2022-12-05T06:16:08;100400.94;;;2.34;86.05
64551;BME280;50945;44.472;-123.352;2022-12-05T06:18:35;100398.13;;;2.35;85.64
64551;BME280;50945;44.472;-123.352;2022-12-05T06:21:02;100404.38;;;2.36;85.76
64551;BME280;50945;44.472;-123.352;2022-12-05T06:23:30;100406.94;;;2.37;85.92
64551;BME280;50945;44.472;-123.352;2022-12-05T06:25:57;100406.09;;;2.37;86.00
64551;BME280;50945;44.472;-123.352;2022-12-05T06:28:24;100410.78;;;2.35;85.60
64551;BME280;50945;44.472;-123.352;2022-12-05T06:30:51;100411.75;;;2.34;85.82
64551;BME280;50945;44.472;-123.352;2022-12-05T06:33:19;100406.47;;;2.32;85.77
64551;BME280;50945;44.472;-123.352;2022-12-05T06:35:45;100402.09;;;2.31;85.96
64551;BME280;50945;44.472;-123.352;2022-12-05T06:38:12;100400.34;;;2.30;86.21
64551;BME280;50945;44.472;-123.352;2022-12-05T06:40:43;100404.03;;;2.29;86.19
64551;BME280;50945;44.472;-123.352;2022-12-05T06:43:10;100404.78;;;2.31;86.35
64551;BME280;50945;44.472;-123.352;2022-12-05T06:45:37;100403.66;;;2.34;86.33
64551;BME280;50945;44.472;-123.352;2022-12-05T06:48:05;100400.94;;;2.34;86.09
64551;BME280;50945;44.472;-123.352;2022-12-05T06:50:31;100406.34;;;2.34;86.18
64551;BME280;50945;44.472;-123.352;2022-12-05T06:52:58;100407.47;;;2.31;86.05
64551;BME280;50945;44.472;-123.352;2022-12-05T06:55:24;100407.59;;;2.30;86.42
64551;BME280;50945;44.472;-123.352;2022-12-05T06:57:50;100414.69;;;2.31;86.10
64551;BME280;50945;44.472;-123.352;2022-12-05T07:00:17;100414.69;;;2.31;86.02
64551;BME280;50945;44.472;-123.352;2022-12-05T07:03:01;100420.97;;;2.31;86.32
64551;BME280;50945;44.472;-123.352;2022-12-05T07:05:28;100416.41;;;2.32;85.81
64551;BME280;50945;44.472;-123.352;2022-12-05T07:07:54;100416.53;;;2.30;86.06
64551;BME280;50945;44.472;-123.352;2022-12-05T07:10:21;100418.66;;;2.26;85.97
64551;BME280;50945;44.472;-123.352;2022-12-05T07:12:47;100414.50;;;2.22;86.09
64551;BME280;50945;44.472;-123.352;2022-12-05T07:15:14;100411.22;;;2.19;85.84
64551;BME280;50945;44.472;-123.352;2022-12-05T07:17:40;100408.63;;;2.17;86.27
64551;BME280;50945;44.472;-123.352;2022-12-05T07:20:07;100414.16;;;2.16;86.62
64551;BME280;50945;44.472;-123.352;2022-12-05T07:22:35;100402.91;;;2.11;86.56
64551;BME280;50945;44.472;-123.352;2022-12-05T07:25:02;100409.41;;;2.08;86.63
64551;BME280;50945;44.472;-123.352;2022-12-05T07:27:29;100407.81;;;2.05;86.42
64551;BME280;50945;44.472;-123.352;2022-12-05T07:29:55;100417.75;;;2.05;86.47
64551;BME280;50945;44.472;-123.352;2022-12-05T07:32:21;100407.22;;;2.02;86.29
64551;BME280;50945;44.472;-123.352;2022-12-05T07:34:47;100411.91;;;2.00;86.28
64551;BME280;50945;44.472;-123.352;2022-12-05T07:37:14;100406.63;;;1.98;86.30
64551;BME280;50945;44.472;-123.352;2022-12-05T07:39:40;100402.06;;;1.99;86.75
64551;BME280;50945;44.472;-123.352;2022-12-05T07:42:07;100391.16;;;2.00;87.00
64551;BME280;50945;44.472;-123.352;2022-12-05T07:44:33;100402.84;;;2.01;87.37
64551;BME280;50945;44.472;-123.352;2022-12-05T07:47:00;100392.16;;;1.99;87.05
64551;BME280;50945;44.472;-123.352;2022-12-05T07:49:27;100391.16;;;2.00;87.21
64551;BME280;50945;44.472;-123.352;2022-12-05T07:51:53;100388.22;;;2.03;87.22
64551;BME280;50945;44.472;-123.352;2022-12-05T07:54:19;100390.06;;;2.03;86.89
64551;BME280;50945;44.472;-123.352;2022-12-05T07:56:46;100382.97;;;2.02;86.93
64551;BME280;50945;44.472;-123.352;2022-12-05T07:59:12;100388.34;;;2.02;87.06
64551;BME280;50945;44.472;-123.352;2022-12-05T08:01:38;100390.19;;;2.01;87.12
64551;BME280;50945;44.472;-123.352;2022-12-05T08:04:04;100388.34;;;2.02;87.52
64551;BME280;50945;44.472;-123.352;2022-12-05T08:06:33;100382.84;;;2.03;86.79
64551;BME280;50945;44.472;-123.352;2022-12-05T08:08:59;100387.38;;;2.03;86.79
64551;BME280;50945;44.472;-123.352;2022-12-05T08:11:28;100385.66;;;2.02;86.99
64551;BME280;50945;44.472;-123.352;2022-12-05T08:13:55;100391.88;;;2.02;87.21
64551;BME280;50945;44.472;-123.352;2022-12-05T08:16:24;100387.38;;;2.03;87.23
64551;BME280;50945;44.472;-123.352;2022-12-05T08:18:56;100385.41;;;2.05;86.84
64551;BME280;50945;44.472;-123.352;2022-12-05T08:21:23;100385.41;;;2.05;86.71
64551;BME280;50945;44.472;-123.352;2022-12-05T08:23:52;100382.72;;;2.05;86.61
64551;BME280;50945;44.472;-123.352;2022-12-05T08:26:24;100380.00;;;2.05;86.61
64551;BME280;50945;44.472;-123.352;2022-12-05T08:28:55;100379.28;;;2.03;86.55
64551;BME280;50945;44.472;-123.352;2022-12-05T08:31:24;100385.66;;;2.02;86.85
64551;BME280;50945;44.472;-123.352;2022-12-05T08:33:51;100386.38;;;2.04;86.78
64551;BME280;50945;44.472;-123.352;2022-12-05T08:36:18;100389.06;;;2.04;87.29
64551;BME280;50945;44.472;-123.352;2022-12-05T08:38:45;100379.00;;;2.06;87.25
64551;BME280;50945;44.472;-123.352;2022-12-05T08:41:14;100378.03;;;2.07;87.17
64551;BME280;50945;44.472;-123.352;2022-12-05T08:43:41;100368.09;;;2.07;86.64
64551;BME280;50945;44.472;-123.352;2022-12-05T08:46:08;100368.09;;;2.07;87.29
64551;BME280;50945;44.472;-123.352;2022-12-05T08:48:35;100373.47;;;2.07;87.32
64551;BME280;50945;44.472;-123.352;2022-12-05T08:51:06;100378.75;;;2.09;86.99
64551;BME280;50945;44.472;-123.352;2022-12-05T08:53:34;100369.81;;;2.08;87.17
64551;BME280;50945;44.472;-123.352;2022-12-05T08:56:04;100371.50;;;2.09;87.37
64551;BME280;50945;44.472;-123.352;2022-12-05T08:58:31;100375.94;;;2.11;87.17
64551;BME280;50945;44.472;-123.352;2022-12-05T09:01:12;100378.63;;;2.11;87.41
64551;BME280;50945;44.472;-123.352;2022-12-05T09:03:40;100379.47;;;2.11;87.45
64551;BME280;50945;44.472;-123.352;2022-12-05T09:06:09;100378.38;;;2.14;87.49
64551;BME280;50945;44.472;-123.352;2022-12-05T09:08:36;100390.72;;;2.16;87.56
64551;BME280;50945;44.472;-123.352;2022-12-05T09:11:07;100378.97;;;2.17;87.35
64551;BME280;50945;44.472;-123.352;2022-12-05T09:13:34;100376.53;;;2.14;87.20
64551;BME280;50945;44.472;-123.352;2022-12-05T09:16:11;100372.25;;;2.12;87.71
64551;BME280;50945;44.472;-123.352;2022-12-05T09:18:38;100368.22;;;2.06;87.43
64551;BME280;50945;44.472;-123.352;2022-12-05T09:21:16;100362.22;;;2.02;87.40
64551;BME280;50945;44.472;-123.352;2022-12-05T09:23:43;100360.28;;;2.04;87.34
64551;BME280;50945;44.472;-123.352;2022-12-05T09:26:11;100354.88;;;2.04;87.49
64551;BME280;50945;44.472;-123.352;2022-12-05T09:28:39;100360.13;;;2.06;87.78
64551;BME280;50945;44.472;-123.352;2022-12-05T09:31:09;100359.28;;;2.05;87.28
64551;BME280;50945;44.472;-123.352;2022-12-05T09:33:37;100359.28;;;2.05;86.99
64551;BME280;50945;44.472;-123.352;2022-12-05T09:36:07;100368.38;;;2.04;87.04
64551;BME280;50945;44.472;-123.352;2022-12-05T09:38:34;100357.84;;;2.01;86.89
64551;BME280;50945;44.472;-123.352;2022-12-05T09:41:23;100362.63;;;1.98;86.81
64551;BME280;50945;44.472;-123.352;2022-12-05T09:47:34;100370.50;;;1.89;87.35
64551;BME280;50945;44.472;-123.352;2022-12-05T09:56:35;100366.13;;;1.77;87.28
64551;BME280;50945;44.472;-123.352;2022-12-05T09:58:52;100372.66;;;1.75;87.29
64551;BME280;50945;44.472;-123.352;2022-12-05T10:06:41;100370.84;;;1.64;87.78
64551;BME280;50945;44.472;-123.352;2022-12-05T10:17:45;100368.91;;;1.55;88.46
64551;BME280;50945;44.472;-123.352;2022-12-05T10:20:24;100373.53;;;1.52;88.28
64551;BME280;50945;44.472;-123.352;2022-12-05T10:22:53;100372.56;;;1.54;88.51
64551;BME280;50945;44.472;-123.352;2022-12-05T10:25:24;100365.22;;;1.56;88.53
64551;BME280;50945;44.472;-123.352;2022-12-05T10:27:55;100363.38;;;1.56;88.28
64551;BME280;50945;44.472;-123.352;2022-12-05T10:30:26;100357.97;;;1.56;88.40
64551;BME280;50945;44.472;-123.352;2022-12-05T10:33:02;100359.84;;;1.56;88.62
64551;BME280;50945;44.472;-123.352;2022-12-05T10:35:39;100352.75;;;1.55;88.42
64551;BME280;50945;44.472;-123.352;2022-12-05T10:38:28;100355.44;;;1.55;88.45
64551;BME280;50945;44.472;-123.352;2022-12-05T10:41:04;100364.38;;;1.55;88.91
64551;BME280;50945;44.472;-123.352;2022-12-05T10:43:33;100353.59;;;1.55;89.17
64551;BME280;50945;44.472;-123.352;2022-12-05T10:46:03;100349.06;;;1.56;88.84
64551;BME280;50945;44.472;-123.352;2022-12-05T10:48:30;100354.44;;;1.56;88.89
64551;BME280;50945;44.472;-123.352;2022-12-05T10:50:59;100357.13;;;1.56;88.99
64551;BME280;50945;44.472;-123.352;2022-12-05T10:53:43;100359.72;;;1.57;89.08
64551;BME280;50945;44.472;-123.352;2022-12-05T10:56:48;100364.25;;;1.57;89.63
64551;BME280;50945;44.472;-123.352;2022-12-05T10:59:41;100364.38;;;1.55;89.73
64551;BME280;50945;44.472;-123.352;2022-12-05T11:02:29;100353.84;;;1.52;89.36
64551;BME280;50945;44.472;-123.352;2022-12-05T11:04:58;100359.34;;;1.50;89.99
64551;BME280;50945;44.472;-123.352;2022-12-05T11:07:32;100349.69;;;1.48;89.21
64551;BME280;50945;44.472;-123.352;2022-12-05T11:10:02;100349.94;;;1.45;89.66
64551;BME280;50945;44.472;-123.352;2022-12-05T11:17:45;100338.81;;;1.38;89.87
64551;BME280;50945;44.472;-123.352;2022-12-05T11:22:51;100336.22;;;1.37;90.42
64551;BME280;50945;44.472;-123.352;2022-12-05T11:25:28;100346.28;;;1.35;89.95
64551;BME280;50945;44.472;-123.352;2022-12-05T11:27:58;100340.91;;;1.35;89.90
64551;BME280;50945;44.472;-123.352;2022-12-05T11:30:26;100339.09;;;1.35;90.47
64551;BME280;50945;44.472;-123.352;2022-12-05T11:33:21;100341.00;;;1.33;89.83
64551;BME280;50945;44.472;-123.352;2022-12-05T11:35:51;100342.38;;;1.27;89.43
64551;BME280;50945;44.472;-123.352;2022-12-05T11:38:20;100340.09;;;1.23;89.58
64551;BME280;50945;44.472;-123.352;2022-12-05T11:46:16;100335.78;;;1.20;90.32
64551;BME280;50945;44.472;-123.352;2022-12-05T11:51:52;100329.44;;;1.21;90.59
64551;BME280;50945;44.472;-123.352;2022-12-05T11:57:34;100345.34;;;1.13;91.17
64551;BME280;50945;44.472;-123.352;2022-12-05T12:08:29;100354.41;;;1.12;90.87
64551;BME280;50945;44.472;-123.352;2022-12-05T12:11:16;100350.84;;;1.11;90.63
64551;BME280;50945;44.472;-123.352;2022-12-05T12:14:12;100352.69;;;1.11;91.07
64551;BME280;50945;44.472;-123.352;2022-12-05T12:17:14;100356.22;;;1.11;91.04
64551;BME280;50945;44.472;-123.352;2022-12-05T12:34:04;100370.94;;;1.07;90.81
64551;BME280;50945;44.472;-123.352;2022-12-05T13:01:41;100358.31;;;1.08;91.12
64551;BME280;50945;44.472;-123.352;2022-12-05T13:04:12;100353.66;;;1.10;90.86
64551;BME280;50945;44.472;-123.352;2022-12-05T13:11:59;100336.91;;;1.06;90.38
64551;BME280;50945;44.472;-123.352;2022-12-05T13:14:31;100338.75;;;1.06;90.30
64551;BME280;50945;44.472;-123.352;2022-12-05T13:17:00;100333.47;;;1.04;90.53
64551;BME280;50945;44.472;-123.352;2022-12-05T13:19:29;100335.44;;;1.02;90.44
64551;BME280;50945;44.472;-123.352;2022-12-05T13:22:02;100338.88;;;1.04;90.64
64551;BME280;50945;44.472;-123.352;2022-12-05T13:24:29;100339.72;;;1.05;90.45
64551;BME280;50945;44.472;-123.352;2022-12-05T13:27:05;100351.09;;;1.08;90.60
64551;BME280;50945;44.472;-123.352;2022-12-05T13:29:38;100352.81;;;1.09;90.75
64551;BME280;50945;44.472;-123.352;2022-12-05T13:32:43;100353.66;;;1.10;90.89
64551;BME280;50945;44.472;-123.352;2022-12-05T13:35:10;100351.84;;;1.10;90.95
64551;BME280;50945;44.472;-123.352;2022-12-05T13:37:46;100354.28;;;1.13;91.07
64551;BME280;50945;44.472;-123.352;2022-12-05T13:40:37;100356.84;;;1.15;90.97
64551;BME280;50945;44.472;-123.352;2022-12-05T13:43:40;100356.72;;;1.17;90.95
64551;BME280;50945;44.472;-123.352;2022-12-05T13:46:22;100355.88;;;1.16;90.86
64551;BME280;50945;44.472;-123.352;2022-12-05T13:48:58;100359.53;;;1.15;90.91
64551;BME280;50945;44.472;-123.352;2022-12-05T13:51:38;100367.63;;;1.15;90.69
64551;BME280;50945;44.472;-123.352;2022-12-05T13:56:53;100380.22;;;1.14;90.71
64551;BME280;50945;44.472;-123.352;2022-12-05T14:05:38;100379.63;;;1.11;91.95
64551;BME280;50945;44.472;-123.352;2022-12-05T14:15:55;100386.50;;;0.92;92.02
64551;BME280;50945;44.472;-123.352;2022-12-05T14:30:12;100402.03;;;0.89;92.02
64551;BME280;50945;44.472;-123.352;2022-12-05T14:32:42;100400.31;;;0.88;92.14
64551;BME280;50945;44.472;-123.352;2022-12-05T14:38:36;100393.06;;;0.88;91.70
64551;BME280;50945;44.472;-123.352;2022-12-05T14:41:31;100392.09;;;0.89;91.67
64551;BME280;50945;44.472;-123.352;2022-12-05T14:43:59;100392.22;;;0.88;91.31
64551;BME280;50945;44.472;-123.352;2022-12-05T14:46:31;100392.34;;;0.86;90.88
64551;BME280;50945;44.472;-123.352;2022-12-05T14:52:11;100397.72;;;0.86;91.68
64551;BME280;50945;44.472;-123.352;2022-12-05T14:54:44;100402.13;;;0.87;91.73
64551;BME280;50945;44.472;-123.352;2022-12-05T14:57:13;100388.56;;;0.89;91.23
64551;BME280;50945;44.472;-123.352;2022-12-05T15:02:21;100389.03;;;0.94;91.50
64551;BME280;50945;44.472;-123.352;2022-12-05T15:05:29;100387.94;;;0.97;91.88
64551;BME280;50945;44.472;-123.352;2022-12-05T15:07:57;100391.50;;;0.97;91.65
64551;BME280;50945;44.472;-123.352;2022-12-05T15:10:31;100388.78;;;0.97;91.84
64551;BME280;50945;44.472;-123.352;2022-12-05T15:13:34;100391.50;;;0.97;91.63
64551;BME280;50945;44.472;-123.352;2022-12-05T15:16:13;100395.91;;;0.98;92.02
64551;BME280;50945;44.472;-123.352;2022-12-05T15:18:46;100394.91;;;0.99;91.96
64551;BME280;50945;44.472;-123.352;2022-12-05T15:21:35;100398.31;;;1.01;91.35
64551;BME280;50945;44.472;-123.352;2022-12-05T15:24:05;100389.28;;;1.02;91.64
64551;BME280;50945;44.472;-123.352;2022-12-05T15:26:37;100403.47;;;1.04;93.47
64551;BME280;50945;44.472;-123.352;2022-12-05T15:37:17;100402.00;;;1.11;91.78
64551;BME280;50945;44.472;-123.352;2022-12-05T15:39:57;100403.63;;;1.14;91.58
64551;BME280;50945;44.472;-123.352;2022-12-05T15:42:48;100397.13;;;1.17;91.66
64551;BME280;50945;44.472;-123.352;2022-12-05T15:55:45;100403.59;;;1.25;92.09
64551;BME280;50945;44.472;-123.352;2022-12-05T16:09:03;100412.78;;;1.23;91.61
64551;BME280;50945;44.472;-123.352;2022-12-05T16:11:30;100416.34;;;1.23;91.25
64551;BME280;50945;44.472;-123.352;2022-12-05T16:13:59;100410.94;;;1.23;91.29
64551;BME280;50945;44.472;-123.352;2022-12-05T16:16:32;100420.00;;;1.22;90.93
64551;BME280;50945;44.472;-123.352;2022-12-05T16:19:14;100419.88;;;1.24;91.30
64551;BME280;50945;44.472;-123.352;2022-12-05T16:21:46;100423.41;;;1.24;91.31
64551;BME280;50945;44.472;-123.352;2022-12-05T16:26:40;100427.97;;;1.24;91.10
64551;BME280;50945;44.472;-123.352;2022-12-05T16:29:07;100422.69;;;1.22;93.13